sensor_id;sensor_type;location;lat;lon;timestamp;pressure;altitude;pressure_sealevel;temperature;humidity
72330;BME280;60660;52.076;5.110;2023-03-26T00:02:23;100759.95;;;10.61;34.09
72330;BME280;60660;52.076;5.110;2023-03-26T00:04:48;100763.54;;;10.62;34.30
72330;BME280;60660;52.076;5.110;2023-03-26T00:07:14;100764.02;;;10.49;34.57
72330;BME280;60660;52.076;5.110;2023-03-26T00:09:39;100764.00;;;9.67;34.84
72330;BME280;60660;52.076;5.110;2023-03-26T00:12:05;100765.42;;;10.50;34.73
72330;BME280;60660;52.076;5.110;2023-03-26T00:14:31;100763.84;;;9.82;35.51
72330;BME280;60660;52.076;5.110;2023-03-26T00:16:55;100765.68;;;9.62;35.55
72330;BME280;60660;52.076;5.110;2023-03-26T00:19:20;100758.79;;;9.41;36.19
72330;BME280;60660;52.076;5.110;2023-03-26T00:21:47;100752.05;;;9.41;36.10
72330;BME280;60660;52.076;5.110;2023-03-26T00:24:12;100751.86;;;9.48;36.51
72330;BME280;60660;52.076;5.110;2023-03-26T00:26:36;100748.07;;;9.10;36.65
72330;BME280;60660;52.076;5.110;2023-03-26T00:29:01;100744.45;;;9.64;36.16
72330;BME280;60660;52.076;5.110;2023-03-26T00:31:27;100739.31;;;9.50;36.63
72330;BME280;60660;52.076;5.110;2023-03-26T00:33:52;100737.77;;;9.67;36.43
72330;BME280;60660;52.076;5.110;2023-03-26T00:36:18;100732.98;;;9.76;36.95
72330;BME280;60660;52.076;5.110;2023-03-26T00:38:44;100728.13;;;9.56;36.55
72330;BME280;60660;52.076;5.110;2023-03-26T00:41:10;100723.32;;;10.01;36.21
72330;BME280;60660;52.076;5.110;2023-03-26T00:43:35;100722.49;;;9.78;36.13
72330;BME280;60660;52.076;5.110;2023-03-26T00:45:59;100723.09;;;9.47;36.04
72330;BME280;60660;52.076;5.110;2023-03-26T00:48:24;100723.82;;;9.83;36.01
72330;BME280;60660;52.076;5.110;2023-03-26T00:50:50;100717.32;;;10.11;35.48
72330;BME280;60660;52.076;5.110;2023-03-26T00:53:16;100716.89;;;10.41;35.11
72330;BME280;60660;52.076;5.110;2023-03-26T00:55:42;100713.47;;;9.98;35.15
72330;BME280;60660;52.076;5.110;2023-03-26T00:58:07;100713.31;;;10.64;35.26
72330;BME280;60660;52.076;5.110;2023-03-26T01:00:34;100710.38;;;9.90;35.60
72330;BME280;60660;52.076;5.110;2023-03-26T01:02:57;100711.77;;;9.70;36.47
72330;BME280;60660;52.076;5.110;2023-03-26T01:05:45;100703.94;;;9.94;36.49
72330;BME280;60660;52.076;5.110;2023-03-26T01:07:48;100695.95;;;10.00;35.93
72330;BME280;60660;52.076;5.110;2023-03-26T01:10:14;100693.08;;;10.64;35.65
72330;BME280;60660;52.076;5.110;2023-03-26T01:12:39;100688.45;;;10.07;35.58
72330;BME280;60660;52.076;5.110;2023-03-26T01:15:05;100681.04;;;10.10;35.54
72330;BME280;60660;52.076;5.110;2023-03-26T01:17:30;100673.75;;;10.98;34.45
72330;BME280;60660;52.076;5.110;2023-03-26T01:19:59;100672.47;;;11.10;34.43
72330;BME280;60660;52.076;5.110;2023-03-26T01:22:23;100670.79;;;11.34;33.90
72330;BME280;60660;52.076;5.110;2023-03-26T01:24:45;100667.03;;;11.29;34.05
72330;BME280;60660;52.076;5.110;2023-03-26T01:27:19;100666.93;;;11.23;34.47
72330;BME280;60660;52.076;5.110;2023-03-26T01:29:41;100661.26;;;10.36;35.14
72330;BME280;60660;52.076;5.110;2023-03-26T01:32:08;100659.45;;;10.09;35.38
72330;BME280;60660;52.076;5.110;2023-03-26T01:34:34;100655.03;;;10.74;35.08
72330;BME280;60660;52.076;5.110;2023-03-26T01:36:56;100654.19;;;10.78;34.88
72330;BME280;60660;52.076;5.110;2023-03-26T01:39:23;100647.41;;;10.98;34.78
72330;BME280;60660;52.076;5.110;2023-03-26T01:41:45;100646.79;;;10.70;34.84
72330;BME280;60660;52.076;5.110;2023-03-26T01:44:14;100642.47;;;10.66;35.07
72330;BME280;60660;52.076;5.110;2023-03-26T01:46:34;100641.02;;;10.80;35.17
72330;BME280;60660;52.076;5.110;2023-03-26T01:48:59;100642.28;;;10.78;35.02
72330;BME280;60660;52.076;5.110;2023-03-26T01:51:26;100639.53;;;10.71;35.26
72330;BME280;60660;52.076;5.110;2023-03-26T01:53:50;100635.21;;;10.52;35.91
72330;BME280;60660;52.076;5.110;2023-03-26T01:56:19;100635.04;;;10.24;36.48
72330;BME280;60660;52.076;5.110;2023-03-26T01:58:51;100631.33;;;10.18;36.16
72330;BME280;60660;52.076;5.110;2023-03-26T02:01:15;100625.43;;;11.24;35.27
72330;BME280;60660;52.076;5.110;2023-03-26T02:03:38;100621.28;;;11.34;35.11
72330;BME280;60660;52.076;5.110;2023-03-26T02:06:02;100618.52;;;10.97;35.49
72330;BME280;60660;52.076;5.110;2023-03-26T02:08:31;100614.85;;;11.00;35.23
72330;BME280;60660;52.076;5.110;2023-03-26T02:10:51;100609.17;;;10.16;36.21
72330;BME280;60660;52.076;5.110;2023-03-26T02:13:14;100608.92;;;10.30;36.40
72330;BME280;60660;52.076;5.110;2023-03-26T02:15:39;100612.83;;;9.60;36.89
72330;BME280;60660;52.076;5.110;2023-03-26T02:18:04;100604.17;;;10.71;36.21
72330;BME280;60660;52.076;5.110;2023-03-26T02:20:31;100602.29;;;10.09;36.81
72330;BME280;60660;52.076;5.110;2023-03-26T02:22:55;100601.37;;;9.04;37.23
72330;BME280;60660;52.076;5.110;2023-03-26T02:25:21;100595.05;;;10.96;35.64
72330;BME280;60660;52.076;5.110;2023-03-26T02:27:46;100593.54;;;10.12;35.81
72330;BME280;60660;52.076;5.110;2023-03-26T02:30:13;100592.38;;;11.10;35.17
72330;BME280;60660;52.076;5.110;2023-03-26T02:32:36;100591.23;;;11.10;34.64
72330;BME280;60660;52.076;5.110;2023-03-26T02:35:02;100593.23;;;11.03;35.00
72330;BME280;60660;52.076;5.110;2023-03-26T02:37:26;100590.57;;;10.02;36.37
72330;BME280;60660;52.076;5.110;2023-03-26T02:39:52;100593.14;;;9.34;37.82
72330;BME280;60660;52.076;5.110;2023-03-26T02:42:19;100590.35;;;10.30;36.94
72330;BME280;60660;52.076;5.110;2023-03-26T02:44:43;100585.16;;;9.87;37.00
72330;BME280;60660;52.076;5.110;2023-03-26T02:47:08;100580.73;;;10.33;36.56
72330;BME280;60660;52.076;5.110;2023-03-26T02:49:33;100579.46;;;8.58;38.29
72330;BME280;60660;52.076;5.110;2023-03-26T02:51:59;100577.27;;;9.69;37.34
72330;BME280;60660;52.076;5.110;2023-03-26T02:54:24;100575.37;;;8.93;37.21
72330;BME280;60660;52.076;5.110;2023-03-26T02:56:50;100577.66;;;9.84;36.72
72330;BME280;60660;52.076;5.110;2023-03-26T02:59:20;100574.69;;;10.20;36.27
72330;BME280;60660;52.076;5.110;2023-03-26T03:01:40;100574.40;;;9.48;36.64
72330;BME280;60660;52.076;5.110;2023-03-26T03:04:06;100573.13;;;9.79;36.47
72330;BME280;60660;52.076;5.110;2023-03-26T03:06:32;100566.07;;;10.74;35.55
72330;BME280;60660;52.076;5.110;2023-03-26T03:08:57;100562.85;;;9.78;36.16
72330;BME280;60660;52.076;5.110;2023-03-26T03:11:23;100559.71;;;10.33;35.49
72330;BME280;60660;52.076;5.110;2023-03-26T03:13:48;100558.61;;;10.11;35.65
72330;BME280;60660;52.076;5.110;2023-03-26T03:16:14;100554.58;;;10.45;35.54
72330;BME280;60660;52.076;5.110;2023-03-26T03:18:39;100559.72;;;9.51;36.46
72330;BME280;60660;52.076;5.110;2023-03-26T03:21:05;100556.48;;;10.31;35.71
72330;BME280;60660;52.076;5.110;2023-03-26T03:23:31;100555.96;;;10.53;35.27
72330;BME280;60660;52.076;5.110;2023-03-26T03:25:57;100557.74;;;10.77;34.79
72330;BME280;60660;52.076;5.110;2023-03-26T03:28:21;100552.30;;;10.87;34.91
72330;BME280;60660;52.076;5.110;2023-03-26T03:30:46;100548.79;;;10.16;35.11
72330;BME280;60660;52.076;5.110;2023-03-26T03:33:12;100544.26;;;10.12;35.50
72330;BME280;60660;52.076;5.110;2023-03-26T03:35:37;100541.61;;;10.23;35.13
72330;BME280;60660;52.076;5.110;2023-03-26T03:38:02;100542.57;;;10.11;35.54
72330;BME280;60660;52.076;5.110;2023-03-26T03:40:27;100543.47;;;11.00;34.42
72330;BME280;60660;52.076;5.110;2023-03-26T03:42:53;100539.13;;;10.10;35.40
72330;BME280;60660;52.076;5.110;2023-03-26T03:45:18;100540.84;;;11.09;34.40
72330;BME280;60660;52.076;5.110;2023-03-26T03:47:43;100539.01;;;11.55;33.98
72330;BME280;60660;52.076;5.110;2023-03-26T03:50:09;100533.94;;;10.99;34.27
72330;BME280;60660;52.076;5.110;2023-03-26T03:52:34;100525.26;;;9.92;34.98
72330;BME280;60660;52.076;5.110;2023-03-26T03:55:00;100521.58;;;10.78;34.64
72330;BME280;60660;52.076;5.110;2023-03-26T03:57:25;100520.06;;;10.91;34.53
72330;BME280;60660;52.076;5.110;2023-03-26T03:59:51;100513.84;;;11.95;33.47
72330;BME280;60660;52.076;5.110;2023-03-26T04:02:16;100511.47;;;11.96;33.45
72330;BME280;60660;52.076;5.110;2023-03-26T04:04:41;100507.28;;;11.99;33.11
72330;BME280;60660;52.076;5.110;2023-03-26T04:07:07;100509.97;;;12.50;31.98
72330;BME280;60660;52.076;5.110;2023-03-26T04:09:33;100512.36;;;12.90;31.92
72330;BME280;60660;52.076;5.110;2023-03-26T04:11:58;100506.49;;;12.39;32.31
72330;BME280;60660;52.076;5.110;2023-03-26T04:14:24;100502.37;;;12.70;31.93
72330;BME280;60660;52.076;5.110;2023-03-26T04:16:49;100504.41;;;12.62;32.12
72330;BME280;60660;52.076;5.110;2023-03-26T04:19:14;100497.44;;;11.98;32.56
72330;BME280;60660;52.076;5.110;2023-03-26T04:21:40;100494.76;;;12.09;32.22
72330;BME280;60660;52.076;5.110;2023-03-26T04:24:05;100490.74;;;12.05;32.19
72330;BME280;60660;52.076;5.110;2023-03-26T04:26:31;100488.06;;;12.43;32.28
72330;BME280;60660;52.076;5.110;2023-03-26T04:28:58;100484.72;;;12.96;31.66
72330;BME280;60660;52.076;5.110;2023-03-26T04:31:23;100476.75;;;11.81;32.45
72330;BME280;60660;52.076;5.110;2023-03-26T04:33:47;100467.13;;;11.48;32.62
72330;BME280;60660;52.076;5.110;2023-03-26T04:36:14;100467.18;;;12.56;32.07
72330;BME280;60660;52.076;5.110;2023-03-26T04:38:41;100461.38;;;12.49;31.32
72330;BME280;60660;52.076;5.110;2023-03-26T04:41:04;100455.36;;;12.75;31.61
72330;BME280;60660;52.076;5.110;2023-03-26T04:43:30;100451.53;;;12.27;32.01
72330;BME280;60660;52.076;5.110;2023-03-26T04:45:55;100451.13;;;12.32;31.71
72330;BME280;60660;52.076;5.110;2023-03-26T04:48:21;100446.44;;;12.20;31.97
72330;BME280;60660;52.076;5.110;2023-03-26T04:50:46;100439.73;;;12.95;31.17
72330;BME280;60660;52.076;5.110;2023-03-26T04:53:13;100436.87;;;12.65;31.34
72330;BME280;60660;52.076;5.110;2023-03-26T04:55:40;100435.33;;;13.34;30.51
72330;BME280;60660;52.076;5.110;2023-03-26T04:58:01;100432.65;;;12.29;31.51
72330;BME280;60660;52.076;5.110;2023-03-26T05:00:26;100428.12;;;13.20;30.83
72330;BME280;60660;52.076;5.110;2023-03-26T05:02:51;100423.00;;;12.64;30.99
72330;BME280;60660;52.076;5.110;2023-03-26T05:05:17;100421.04;;;11.05;31.85
72330;BME280;60660;52.076;5.110;2023-03-26T05:07:42;100419.17;;;11.03;31.90
72330;BME280;60660;52.076;5.110;2023-03-26T05:10:14;100416.61;;;11.11;32.44
72330;BME280;60660;52.076;5.110;2023-03-26T05:12:33;100415.33;;;10.79;33.22
72330;BME280;60660;52.076;5.110;2023-03-26T05:14:57;100413.31;;;9.62;34.21
72330;BME280;60660;52.076;5.110;2023-03-26T05:17:23;100410.90;;;9.92;34.43
72330;BME280;60660;52.076;5.110;2023-03-26T05:19:48;100409.78;;;10.10;34.36
72330;BME280;60660;52.076;5.110;2023-03-26T05:22:14;100406.50;;;10.22;34.17
72330;BME280;60660;52.076;5.110;2023-03-26T05:24:39;100402.08;;;10.68;33.45
72330;BME280;60660;52.076;5.110;2023-03-26T05:27:04;100398.29;;;10.80;33.65
72330;BME280;60660;52.076;5.110;2023-03-26T05:29:29;100395.06;;;9.58;34.97
72330;BME280;60660;52.076;5.110;2023-03-26T05:31:54;100389.54;;;8.46;36.44
72330;BME280;60660;52.076;5.110;2023-03-26T05:34:20;100390.37;;;8.99;36.14
72330;BME280;60660;52.076;5.110;2023-03-26T05:36:45;100383.08;;;8.68;36.53
72330;BME280;60660;52.076;5.110;2023-03-26T05:39:10;100380.92;;;7.27;39.03
72330;BME280;60660;52.076;5.110;2023-03-26T05:41:35;100376.67;;;5.48;41.78
72330;BME280;60660;52.076;5.110;2023-03-26T05:44:01;100372.75;;;4.88;44.29
72330;BME280;60660;52.076;5.110;2023-03-26T05:46:26;100374.29;;;5.97;43.26
72330;BME280;60660;52.076;5.110;2023-03-26T05:48:52;100374.74;;;8.06;40.27
72330;BME280;60660;52.076;5.110;2023-03-26T05:51:17;100369.80;;;7.51;39.91
72330;BME280;60660;52.076;5.110;2023-03-26T05:53:42;100370.24;;;7.11;40.17
72330;BME280;60660;52.076;5.110;2023-03-26T05:56:08;100365.87;;;7.37;39.53
72330;BME280;60660;52.076;5.110;2023-03-26T05:58:34;100366.41;;;7.85;38.97
72330;BME280;60660;52.076;5.110;2023-03-26T06:00:59;100362.88;;;6.91;39.56
72330;BME280;60660;52.076;5.110;2023-03-26T06:03:24;100364.07;;;7.87;39.14
72330;BME280;60660;52.076;5.110;2023-03-26T06:05:49;100360.76;;;7.76;38.92
72330;BME280;60660;52.076;5.110;2023-03-26T06:08:14;100355.13;;;9.21;37.69
72330;BME280;60660;52.076;5.110;2023-03-26T06:10:40;100356.10;;;7.15;38.93
72330;BME280;60660;52.076;5.110;2023-03-26T06:13:06;100350.57;;;8.69;37.97
72330;BME280;60660;52.076;5.110;2023-03-26T06:15:31;100348.17;;;7.17;39.86
72330;BME280;60660;52.076;5.110;2023-03-26T06:17:56;100341.50;;;5.85;41.83
72330;BME280;60660;52.076;5.110;2023-03-26T06:20:22;100336.33;;;4.80;44.82
72330;BME280;60660;52.076;5.110;2023-03-26T06:22:47;100334.12;;;5.69;43.91
72330;BME280;60660;52.076;5.110;2023-03-26T06:25:12;100333.31;;;5.42;45.04
72330;BME280;60660;52.076;5.110;2023-03-26T06:27:37;100334.70;;;5.56;43.66
72330;BME280;60660;52.076;5.110;2023-03-26T06:30:04;100333.80;;;5.91;43.84
72330;BME280;60660;52.076;5.110;2023-03-26T06:32:29;100333.83;;;5.08;45.16
72330;BME280;60660;52.076;5.110;2023-03-26T06:34:54;100331.26;;;6.36;43.60
72330;BME280;60660;52.076;5.110;2023-03-26T06:37:19;100324.98;;;5.69;44.04
72330;BME280;60660;52.076;5.110;2023-03-26T06:39:49;100325.18;;;3.54;47.00
72330;BME280;60660;52.076;5.110;2023-03-26T06:42:10;100323.79;;;5.91;44.89
72330;BME280;60660;52.076;5.110;2023-03-26T06:44:35;100325.42;;;4.73;45.45
72330;BME280;60660;52.076;5.110;2023-03-26T06:47:00;100326.67;;;6.37;43.66
72330;BME280;60660;52.076;5.110;2023-03-26T06:49:25;100332.69;;;7.21;41.81
72330;BME280;60660;52.076;5.110;2023-03-26T06:51:51;100329.72;;;7.95;40.04
72330;BME280;60660;52.076;5.110;2023-03-26T06:54:16;100326.37;;;8.12;39.48
72330;BME280;60660;52.076;5.110;2023-03-26T06:56:42;100329.96;;;6.66;41.42
72330;BME280;60660;52.076;5.110;2023-03-26T06:59:07;100330.79;;;6.41;42.13
72330;BME280;60660;52.076;5.110;2023-03-26T07:01:34;100328.66;;;7.60;40.16
72330;BME280;60660;52.076;5.110;2023-03-26T07:03:58;100327.63;;;7.51;40.75
72330;BME280;60660;52.076;5.110;2023-03-26T07:06:24;100328.92;;;6.69;41.47
72330;BME280;60660;52.076;5.110;2023-03-26T07:08:49;100330.03;;;7.23;41.45
72330;BME280;60660;52.076;5.110;2023-03-26T07:11:15;100327.79;;;5.70;43.98
72330;BME280;60660;52.076;5.110;2023-03-26T07:13:40;100331.40;;;7.39;41.29
72330;BME280;60660;52.076;5.110;2023-03-26T07:16:06;100329.92;;;9.07;38.98
72330;BME280;60660;52.076;5.110;2023-03-26T07:18:32;100330.34;;;9.98;37.47
72330;BME280;60660;52.076;5.110;2023-03-26T07:20:57;100332.55;;;6.95;40.58
72330;BME280;60660;52.076;5.110;2023-03-26T07:23:22;100332.83;;;7.80;40.44
72330;BME280;60660;52.076;5.110;2023-03-26T07:25:47;100334.75;;;7.89;40.34
72330;BME280;60660;52.076;5.110;2023-03-26T07:28:19;100330.19;;;7.65;40.39
72330;BME280;60660;52.076;5.110;2023-03-26T07:30:47;100326.25;;;8.84;38.26
72330;BME280;60660;52.076;5.110;2023-03-26T07:33:05;100327.59;;;7.24;39.74
72330;BME280;60660;52.076;5.110;2023-03-26T07:35:34;100323.10;;;8.66;39.20
72330;BME280;60660;52.076;5.110;2023-03-26T07:38:02;100326.84;;;7.67;40.31
72330;BME280;60660;52.076;5.110;2023-03-26T07:40:36;100325.38;;;7.36;40.82
72330;BME280;60660;52.076;5.110;2023-03-26T07:42:54;100328.57;;;7.72;40.25
72330;BME280;60660;52.076;5.110;2023-03-26T07:45:18;100326.04;;;6.71;41.29
72330;BME280;60660;52.076;5.110;2023-03-26T07:47:37;100319.38;;;7.20;40.23
72330;BME280;60660;52.076;5.110;2023-03-26T07:50:03;100318.73;;;8.09;40.22
72330;BME280;60660;52.076;5.110;2023-03-26T07:52:28;100316.39;;;8.19;39.93
72330;BME280;60660;52.076;5.110;2023-03-26T07:54:53;100318.98;;;6.93;41.25
72330;BME280;60660;52.076;5.110;2023-03-26T07:57:29;100314.49;;;7.60;40.58
72330;BME280;60660;52.076;5.110;2023-03-26T07:59:51;100315.02;;;8.12;39.41
72330;BME280;60660;52.076;5.110;2023-03-26T08:02:35;100314.49;;;7.81;39.46
72330;BME280;60660;52.076;5.110;2023-03-26T08:04:43;100312.74;;;7.05;40.73
72330;BME280;60660;52.076;5.110;2023-03-26T08:07:07;100312.56;;;8.44;39.70
72330;BME280;60660;52.076;5.110;2023-03-26T08:09:30;100312.28;;;7.82;39.06
72330;BME280;60660;52.076;5.110;2023-03-26T08:11:55;100313.57;;;7.38;40.42
72330;BME280;60660;52.076;5.110;2023-03-26T08:14:27;100308.93;;;8.94;38.51
72330;BME280;60660;52.076;5.110;2023-03-26T08:16:46;100305.94;;;8.02;39.23
72330;BME280;60660;52.076;5.110;2023-03-26T08:19:19;100307.89;;;6.92;40.56
72330;BME280;60660;52.076;5.110;2023-03-26T08:21:37;100306.91;;;5.82;43.08
72330;BME280;60660;52.076;5.110;2023-03-26T08:24:03;100308.11;;;6.88;42.24
72330;BME280;60660;52.076;5.110;2023-03-26T08:26:32;100305.15;;;7.83;40.30
72330;BME280;60660;52.076;5.110;2023-03-26T08:29:00;100305.95;;;5.92;42.83
72330;BME280;60660;52.076;5.110;2023-03-26T08:31:16;100302.34;;;7.68;41.37
72330;BME280;60660;52.076;5.110;2023-03-26T08:33:41;100304.44;;;7.18;41.67
72330;BME280;60660;52.076;5.110;2023-03-26T08:36:07;100304.48;;;6.29;42.41
72330;BME280;60660;52.076;5.110;2023-03-26T08:38:32;100303.39;;;4.81;46.68
72330;BME280;60660;52.076;5.110;2023-03-26T08:41:21;100304.12;;;6.17;45.16
72330;BME280;60660;52.076;5.110;2023-03-26T08:43:39;100303.13;;;5.94;45.16
72330;BME280;60660;52.076;5.110;2023-03-26T08:46:01;100305.93;;;5.44;44.62
72330;BME280;60660;52.076;5.110;2023-03-26T08:50:43;100303.55;;;5.46;46.35
72330;BME280;60660;52.076;5.110;2023-03-26T08:56:20;100305.58;;;8.49;42.68
72330;BME280;60660;52.076;5.110;2023-03-26T08:59:38;100304.79;;;5.32;44.50
72330;BME280;60660;52.076;5.110;2023-03-26T09:01:23;100307.26;;;3.89;48.07
72330;BME280;60660;52.076;5.110;2023-03-26T09:03:45;100306.40;;;2.88;51.97
72330;BME280;60660;52.076;5.110;2023-03-26T09:08:40;100308.69;;;4.78;50.29
72330;BME280;60660;52.076;5.110;2023-03-26T09:10:45;100309.35;;;3.75;51.29
72330;BME280;60660;52.076;5.110;2023-03-26T09:14:03;100307.26;;;5.42;48.49
72330;BME280;60660;52.076;5.110;2023-03-26T09:15:37;100311.59;;;3.86;49.47
72330;BME280;60660;52.076;5.110;2023-03-26T09:18:01;100309.29;;;2.79;51.64
72330;BME280;60660;52.076;5.110;2023-03-26T09:21:06;100306.75;;;3.70;51.99
72330;BME280;60660;52.076;5.110;2023-03-26T09:23:05;100311.65;;;2.65;52.19
72330;BME280;60660;52.076;5.110;2023-03-26T09:25:17;100309.15;;;1.10;59.94
72330;BME280;60660;52.076;5.110;2023-03-26T09:27:37;100312.74;;;2.38;59.71
72330;BME280;60660;52.076;5.110;2023-03-26T09:30:31;100309.42;;;0.72;65.30
72330;BME280;60660;52.076;5.110;2023-03-26T09:32:41;100314.24;;;3.53;57.20
72330;BME280;60660;52.076;5.110;2023-03-26T09:35:02;100313.95;;;2.94;57.08
72330;BME280;60660;52.076;5.110;2023-03-26T09:37:18;100316.57;;;2.06;60.83
72330;BME280;60660;52.076;5.110;2023-03-26T09:39:47;100320.00;;;1.70;61.67
72330;BME280;60660;52.076;5.110;2023-03-26T09:42:10;100319.00;;;1.81;61.63
72330;BME280;60660;52.076;5.110;2023-03-26T09:44:50;100318.99;;;2.40;60.67
72330;BME280;60660;52.076;5.110;2023-03-26T09:47:09;100319.24;;;2.68;58.80
72330;BME280;60660;52.076;5.110;2023-03-26T09:49:31;100321.58;;;3.59;57.44
72330;BME280;60660;52.076;5.110;2023-03-26T09:54:31;100322.31;;;2.52;60.06
72330;BME280;60660;52.076;5.110;2023-03-26T09:56:40;100324.60;;;1.99;60.81
72330;BME280;60660;52.076;5.110;2023-03-26T09:59:09;100325.60;;;2.86;60.10
72330;BME280;60660;52.076;5.110;2023-03-26T10:01:33;100327.15;;;2.02;61.72
72330;BME280;60660;52.076;5.110;2023-03-26T10:03:58;100328.68;;;2.09;61.48
72330;BME280;60660;52.076;5.110;2023-03-26T10:06:28;100327.19;;;1.29;65.29
72330;BME280;60660;52.076;5.110;2023-03-26T10:08:51;100333.96;;;2.43;62.06
72330;BME280;60660;52.076;5.110;2023-03-26T10:11:15;100338.48;;;2.44;61.31
72330;BME280;60660;52.076;5.110;2023-03-26T10:13:38;100343.93;;;3.63;60.13
72330;BME280;60660;52.076;5.110;2023-03-26T10:16:05;100343.19;;;2.31;62.08
72330;BME280;60660;52.076;5.110;2023-03-26T10:18:30;100344.72;;;-0.21;69.52
72330;BME280;60660;52.076;5.110;2023-03-26T10:20:53;100348.35;;;1.52;67.04
72330;BME280;60660;52.076;5.110;2023-03-26T10:23:24;100345.42;;;2.33;62.90
72330;BME280;60660;52.076;5.110;2023-03-26T10:25:50;100347.48;;;2.43;61.59
72330;BME280;60660;52.076;5.110;2023-03-26T10:28:49;100347.59;;;2.62;64.17
72330;BME280;60660;52.076;5.110;2023-03-26T10:30:39;100348.63;;;1.59;63.88
72330;BME280;60660;52.076;5.110;2023-03-26T10:33:03;100359.78;;;3.02;59.05
72330;BME280;60660;52.076;5.110;2023-03-26T10:35:27;100357.44;;;1.18;62.74
72330;BME280;60660;52.076;5.110;2023-03-26T10:37:54;100360.99;;;2.47;61.28
72330;BME280;60660;52.076;5.110;2023-03-26T10:40:18;100361.04;;;2.47;59.66
72330;BME280;60660;52.076;5.110;2023-03-26T10:42:46;100360.21;;;3.75;56.73
72330;BME280;60660;52.076;5.110;2023-03-26T10:45:43;100363.81;;;1.70;61.59
72330;BME280;60660;52.076;5.110;2023-03-26T10:47:34;100365.10;;;1.11;65.37
72330;BME280;60660;52.076;5.110;2023-03-26T10:50:00;100366.66;;;2.68;62.89
72330;BME280;60660;52.076;5.110;2023-03-26T10:52:20;100370.43;;;1.67;62.98
72330;BME280;60660;52.076;5.110;2023-03-26T10:54:54;100373.19;;;0.32;70.08
72330;BME280;60660;52.076;5.110;2023-03-26T10:57:14;100372.98;;;2.46;63.83
72330;BME280;60660;52.076;5.110;2023-03-26T10:59:33;100377.44;;;3.63;57.87
72330;BME280;60660;52.076;5.110;2023-03-26T11:02:20;100378.36;;;1.78;62.04
72330;BME280;60660;52.076;5.110;2023-03-26T11:04:31;100383.40;;;2.15;60.56
72330;BME280;60660;52.076;5.110;2023-03-26T11:06:56;100389.75;;;1.09;61.49
72330;BME280;60660;52.076;5.110;2023-03-26T11:09:22;100383.70;;;2.60;60.32
72330;BME280;60660;52.076;5.110;2023-03-26T11:11:42;100388.21;;;2.38;60.80
72330;BME280;60660;52.076;5.110;2023-03-26T11:14:09;100392.79;;;2.66;61.07
72330;BME280;60660;52.076;5.110;2023-03-26T11:16:37;100392.34;;;1.17;63.48
72330;BME280;60660;52.076;5.110;2023-03-26T11:18:58;100391.86;;;2.95;58.66
72330;BME280;60660;52.076;5.110;2023-03-26T11:21:25;100397.73;;;1.82;61.18
72330;BME280;60660;52.076;5.110;2023-03-26T11:23:51;100400.31;;;3.73;56.90
72330;BME280;60660;52.076;5.110;2023-03-26T11:26:13;100405.35;;;3.03;55.87
72330;BME280;60660;52.076;5.110;2023-03-26T11:28:48;100403.81;;;3.52;55.63
72330;BME280;60660;52.076;5.110;2023-03-26T11:31:07;100406.60;;;3.10;57.61
72330;BME280;60660;52.076;5.110;2023-03-26T11:33:30;100409.85;;;2.19;57.93
72330;BME280;60660;52.076;5.110;2023-03-26T11:35:55;100413.25;;;1.74;59.77
72330;BME280;60660;52.076;5.110;2023-03-26T11:38:20;100413.85;;;2.46;58.40
72330;BME280;60660;52.076;5.110;2023-03-26T11:40:43;100419.97;;;3.02;56.24
72330;BME280;60660;52.076;5.110;2023-03-26T11:43:10;100416.22;;;2.68;56.50
72330;BME280;60660;52.076;5.110;2023-03-26T11:45:35;100420.62;;;3.28;55.86
72330;BME280;60660;52.076;5.110;2023-03-26T11:48:03;100422.99;;;2.19;56.28
72330;BME280;60660;52.076;5.110;2023-03-26T11:50:26;100427.22;;;3.06;55.79
72330;BME280;60660;52.076;5.110;2023-03-26T11:52:56;100427.00;;;3.05;55.71
72330;BME280;60660;52.076;5.110;2023-03-26T11:55:14;100427.67;;;2.75;55.42
72330;BME280;60660;52.076;5.110;2023-03-26T11:57:43;100426.43;;;4.48;52.30
72330;BME280;60660;52.076;5.110;2023-03-26T12:00:07;100432.39;;;4.16;53.36
72330;BME280;60660;52.076;5.110;2023-03-26T12:02:37;100434.19;;;2.64;54.86
72330;BME280;60660;52.076;5.110;2023-03-26T12:05:10;100434.85;;;2.09;55.98
72330;BME280;60660;52.076;5.110;2023-03-26T12:07:28;100437.75;;;2.21;57.79
72330;BME280;60660;52.076;5.110;2023-03-26T12:09:49;100446.08;;;2.31;54.86
72330;BME280;60660;52.076;5.110;2023-03-26T12:12:12;100447.00;;;1.49;57.67
72330;BME280;60660;52.076;5.110;2023-03-26T12:14:41;100444.51;;;1.98;58.80
72330;BME280;60660;52.076;5.110;2023-03-26T12:17:05;100450.85;;;3.63;54.34
72330;BME280;60660;52.076;5.110;2023-03-26T12:19:35;100451.86;;;3.14;55.36
72330;BME280;60660;52.076;5.110;2023-03-26T12:21:53;100454.18;;;3.80;53.86
72330;BME280;60660;52.076;5.110;2023-03-26T12:24:28;100455.17;;;4.25;51.78
72330;BME280;60660;52.076;5.110;2023-03-26T12:26:43;100459.41;;;3.74;51.55
72330;BME280;60660;52.076;5.110;2023-03-26T12:29:11;100459.10;;;3.37;51.93
72330;BME280;60660;52.076;5.110;2023-03-26T12:31:41;100455.63;;;2.61;53.12
72330;BME280;60660;52.076;5.110;2023-03-26T12:34:05;100461.19;;;2.90;54.53
72330;BME280;60660;52.076;5.110;2023-03-26T12:36:30;100462.28;;;2.78;56.39
72330;BME280;60660;52.076;5.110;2023-03-26T12:38:50;100469.74;;;3.23;54.25
72330;BME280;60660;52.076;5.110;2023-03-26T12:41:17;100472.28;;;2.08;54.09
72330;BME280;60660;52.076;5.110;2023-03-26T12:43:43;100474.84;;;3.18;54.75
72330;BME280;60660;52.076;5.110;2023-03-26T12:46:21;100477.06;;;3.68;50.96
72330;BME280;60660;52.076;5.110;2023-03-26T12:48:33;100477.59;;;3.69;49.15
72330;BME280;60660;52.076;5.110;2023-03-26T12:51:11;100480.17;;;3.72;51.01
72330;BME280;60660;52.076;5.110;2023-03-26T12:53:33;100477.68;;;3.77;48.37
72330;BME280;60660;52.076;5.110;2023-03-26T12:55:56;100480.67;;;4.10;47.70
72330;BME280;60660;52.076;5.110;2023-03-26T12:58:23;100484.65;;;4.49;47.72